Lake Mattawa, Massachusetts
Current Conditions -  °F | °C
As of 12:52 AM on Friday 31 Oct 2014 (Local Time) from KORE Reporting Station
Broken Clouds Broken Clouds  
Wind Chill: 37°   Ceiling: 5500
Heat Index: 37°   Visibility: 10mi
Dew Point: 36°   Wind: 0mph
Humidity: 96%   Direction: NA
Pressure: 30"   Gusts: NA
Location:  42.614°N, 72.3011°W
Report Text: KORE 310452Z AUTO 00000KT 10SM BKN055 03/02 A3000 RMK AO2 SLP164 T00280022 401280000
Loading
Personal Weather Stations






























Interactive Weather Map
Tropical Storm Tracking
New forecast layout! Learn more

10-Day Weather Forecast

Advertisements
Track Severe Weather on mobile